Time;durP1;ratioP1;P1;durP2;ratioP2;P2;SDS_P1;SDS_P2;PMS_P1;PMS_P2;Temp;Humidity;BMP_temperature;BMP_pressure;BME280_temperature;BME280_humidity;BME280_pressure;Samples;Min_cycle;Max_cycle;Signal;HPM_P1;HPM_P2
2022/06/21 00:00:51;;;;;;;8.48;3.25;;;;;;;15.65;65.32;101757.66;5028659;28;20566;-54
2022/06/21 00:03:20;;;;;;;9.45;3.30;;;;;;;15.58;65.57;101750.53;5027761;28;20417;-56
2022/06/21 00:05:48;;;;;;;9.18;3.45;;;;;;;15.65;65.42;101754.16;5029445;28;20118;-55
2022/06/21 00:08:17;;;;;;;8.90;3.60;;;;;;;15.54;65.75;101753.91;5029805;28;20079;-57
2022/06/21 00:10:43;;;;;;;8.63;3.53;;;;;;;15.55;65.57;101759.13;5028160;28;20531;-57
2022/06/21 00:13:21;;;;;;;11.20;3.28;;;;;;;15.56;65.46;101758.28;5031488;28;20032;-55
2022/06/21 00:15:48;;;;;;;13.77;3.22;;;;;;;15.48;65.98;101762.44;5027631;28;20506;-56
2022/06/21 00:18:20;;;;;;;7.05;3.08;;;;;;;15.49;65.74;101766.78;5027520;28;20115;-55
2022/06/21 00:20:46;;;;;;;10.43;3.28;;;;;;;15.46;65.78;101761.50;5028933;28;20244;-56
2022/06/21 00:23:19;;;;;;;9.15;3.22;;;;;;;15.47;66.04;101752.00;5025660;28;20029;-55
2022/06/21 00:25:46;;;;;;;8.57;3.20;;;;;;;15.45;66.17;101754.56;5025996;28;21926;-55
2022/06/21 00:28:16;;;;;;;8.57;3.45;;;;;;;15.37;66.21;101757.84;5026154;28;20037;-51
2022/06/21 00:30:43;;;;;;;7.80;3.20;;;;;;;15.35;66.28;101754.31;5028771;28;20075;-51
2022/06/21 00:33:12;;;;;;;6.85;3.00;;;;;;;15.33;66.29;101759.47;5024881;28;20578;-57
2022/06/21 00:35:41;;;;;;;7.78;3.30;;;;;;;15.29;66.35;101755.09;5011329;28;20112;-54
2022/06/21 00:38:12;;;;;;;9.80;3.15;;;;;;;15.26;67.02;101745.50;5025447;28;20075;-53
2022/06/21 00:40:37;;;;;;;6.68;3.10;;;;;;;15.25;66.70;101751.53;5032504;28;20064;-54
2022/06/21 00:43:07;;;;;;;9.13;3.42;;;;;;;15.20;67.01;101747.09;5025760;28;20120;-55
2022/06/21 00:45:40;;;;;;;8.25;3.80;;;;;;;15.17;67.47;101747.91;5029414;28;20527;-54
2022/06/21 00:48:26;;;;;;;7.97;3.42;;;;;;;15.23;66.74;101757.53;5028535;28;20044;-50
2022/06/21 00:50:57;;;;;;;6.95;3.45;;;;;;;15.15;67.07;101759.06;5027970;28;20053;-56
2022/06/21 00:53:36;;;;;;;7.43;3.42;;;;;;;15.21;66.50;101754.00;5028674;28;20056;-56
2022/06/21 00:56:26;;;;;;;12.95;3.67;;;;;;;15.21;66.31;101747.13;5029274;28;20026;-55
2022/06/21 00:58:52;;;;;;;10.00;3.40;;;;;;;15.09;67.24;101743.38;5027973;28;20029;-57
2022/06/21 01:01:20;;;;;;;7.15;3.15;;;;;;;15.01;66.93;101748.38;5022071;28;20554;-55
2022/06/21 01:03:52;;;;;;;5.50;3.00;;;;;;;14.97;66.81;101744.81;5035505;22;20024;-67
2022/06/21 01:06:43;;;;;;;7.45;3.33;;;;;;;14.99;66.37;101742.28;4998918;28;20095;-68
2022/06/21 01:09:25;;;;;;;7.72;3.42;;;;;;;14.78;67.08;101742.63;5000955;28;20508;-68
2022/06/21 01:12:01;;;;;;;6.30;3.40;;;;;;;14.79;67.12;101744.38;5002582;28;20155;-67
2022/06/21 01:14:28;;;;;;;8.95;3.13;;;;;;;14.74;67.15;101736.53;4996864;28;20029;-65
2022/06/21 01:16:53;;;;;;;8.20;3.33;;;;;;;14.65;67.49;101725.91;5001214;28;20053;-65
2022/06/21 01:19:43;;;;;;;8.13;3.47;;;;;;;14.74;66.92;101725.25;4999676;28;20030;-67
2022/06/21 01:22:25;;;;;;;10.75;3.88;;;;;;;14.78;67.51;101724.50;4997044;28;20087;-66
2022/06/21 01:25:02;;;;;;;7.63;3.50;;;;;;;14.66;68.27;101721.63;4998136;28;20049;-67
2022/06/21 01:27:28;;;;;;;9.38;4.13;;;;;;;14.65;68.99;101725.03;4998274;28;20352;-65
2022/06/21 01:29:53;;;;;;;7.35;4.10;;;;;;;14.70;68.90;101719.16;5000737;28;20030;-66
2022/06/21 01:32:19;;;;;;;9.05;4.55;;;;;;;14.68;69.09;101718.25;5001545;28;20036;-66
2022/06/21 01:34:44;;;;;;;10.93;3.90;;;;;;;14.63;69.07;101716.38;4987927;28;20162;-65
2022/06/21 01:37:22;;;;;;;8.35;4.07;;;;;;;14.71;68.97;101725.19;4999782;28;20030;-67
2022/06/21 01:39:55;;;;;;;11.30;3.75;;;;;;;14.70;68.90;101729.50;5000286;28;20052;-65
2022/06/21 01:42:31;;;;;;;8.10;4.10;;;;;;;14.65;69.33;101737.97;4998340;28;20068;-68
2022/06/21 01:45:03;;;;;;;8.30;4.75;;;;;;;14.61;70.17;101725.78;4999092;28;20041;-66
2022/06/21 01:47:41;;;;;;;10.02;4.85;;;;;;;14.58;69.79;101723.16;4999392;28;20038;-66
2022/06/21 01:50:09;;;;;;;10.52;4.63;;;;;;;14.54;69.99;101719.59;4999097;28;20052;-66
2022/06/21 01:52:38;;;;;;;9.77;4.55;;;;;;;14.52;69.86;101720.41;4982500;28;20475;-65
2022/06/21 01:55:26;;;;;;;9.02;4.72;;;;;;;14.56;69.51;101717.94;4998054;28;20034;-65
2022/06/21 01:57:54;;;;;;;10.23;4.70;;;;;;;14.51;70.66;101713.47;4996878;28;20087;-65
2022/06/21 02:00:19;;;;;;;8.18;4.32;;;;;;;14.45;70.29;101704.69;4999703;28;20022;-65
2022/06/21 02:02:51;;;;;;;7.35;4.20;;;;;;;14.46;70.80;101696.13;4997944;28;20100;-65
2022/06/21 02:05:33;;;;;;;9.68;4.53;;;;;;;14.44;70.69;101704.66;4998855;28;20384;-66
2022/06/21 02:08:05;;;;;;;11.60;5.40;;;;;;;14.36;71.45;101706.16;4995216;28;20040;-65
2022/06/21 02:10:37;;;;;;;11.52;4.70;;;;;;;14.37;71.21;101710.47;4996228;28;20033;-66
2022/06/21 02:13:18;;;;;;;11.43;5.10;;;;;;;14.40;70.80;101708.88;4998334;28;20629;-68
2022/06/21 02:15:48;;;;;;;8.50;4.78;;;;;;;14.34;71.38;101700.94;4999526;28;20034;-65
2022/06/21 02:18:16;;;;;;;10.50;4.60;;;;;;;14.28;71.49;101695.59;4999180;28;20045;-68
2022/06/21 02:20:54;;;;;;;10.27;5.03;;;;;;;14.32;71.11;101697.44;4996161;28;20030;-68
2022/06/21 02:23:22;;;;;;;8.93;4.68;;;;;;;14.28;71.39;101697.31;5000209;28;20122;-65
2022/06/21 02:25:50;;;;;;;13.85;4.82;;;;;;;14.25;72.10;101702.41;5000957;28;20120;-68
2022/06/21 02:28:18;;;;;;;11.13;5.00;;;;;;;14.22;71.40;101692.84;4999559;28;20018;-65
2022/06/21 02:30:44;;;;;;;8.20;4.70;;;;;;;14.21;71.78;101685.94;5002705;28;20439;-70
2022/06/21 02:33:16;;;;;;;13.45;5.15;;;;;;;14.23;71.45;101674.78;4995414;28;20052;-70
2022/06/21 02:35:52;;;;;;;7.47;4.85;;;;;;;14.23;71.18;101669.63;4999844;28;20030;-69
2022/06/21 02:38:32;;;;;;;9.18;4.60;;;;;;;14.26;70.83;101660.16;5000979;28;20037;-69
2022/06/21 02:41:25;;;;;;;10.35;4.90;;;;;;;14.22;70.93;101641.13;5001476;28;20067;-70
2022/06/21 02:44:11;;;;;;;13.35;5.45;;;;;;;14.21;71.08;101637.66;4994562;28;20037;-69
2022/06/21 02:46:40;;;;;;;9.18;4.60;;;;;;;14.20;71.35;101648.84;4999865;28;20026;-69
2022/06/21 02:49:14;;;;;;;8.73;4.78;;;;;;;14.20;71.19;101654.03;4979982;28;20034;-69
2022/06/21 02:51:48;;;;;;;10.57;4.95;;;;;;;14.19;71.14;101656.56;4999396;28;20038;-70
2022/06/21 02:54:27;;;;;;;12.57;5.30;;;;;;;14.12;71.70;101660.69;4996757;28;20053;-69
2022/06/21 02:57:10;;;;;;;9.52;4.88;;;;;;;14.11;71.46;101658.94;4999290;28;20112;-69
2022/06/21 02:59:38;;;;;;;10.93;5.10;;;;;;;14.07;71.97;101653.66;4997527;28;20084;-71
2022/06/21 03:02:14;;;;;;;9.10;5.22;;;;;;;14.12;71.45;101657.22;4994276;28;20029;-70
2022/06/21 03:04:50;;;;;;;11.10;4.93;;;;;;;14.07;71.84;101667.44;4981316;28;20061;-69
2022/06/21 03:07:23;;;;;;;11.45;4.80;;;;;;;14.04;71.58;101671.69;4978931;28;20507;-69
2022/06/21 03:09:50;;;;;;;9.70;5.07;;;;;;;13.99;72.00;101683.59;4983959;28;20034;-70
2022/06/21 03:12:23;;;;;;;13.05;5.40;;;;;;;13.93;72.23;101682.59;4946952;28;20041;-69
2022/06/21 03:14:51;;;;;;;9.10;5.07;;;;;;;13.92;71.81;101691.19;4985259;28;20093;-69
2022/06/21 03:17:20;;;;;;;9.65;4.85;;;;;;;13.91;71.94;101686.00;4978952;28;20111;-69
2022/06/21 03:19:54;;;;;;;12.18;5.15;;;;;;;13.92;71.29;101692.91;4985145;28;20044;-69
2022/06/21 03:22:27;;;;;;;11.23;4.80;;;;;;;13.91;71.58;101701.50;4989962;28;20060;-69
2022/06/21 03:24:56;;;;;;;8.52;4.95;;;;;;;13.79;71.92;101702.03;4966461;28;20712;-69
2022/06/21 03:27:34;;;;;;;9.48;4.80;;;;;;;13.83;71.23;101698.72;4986198;28;20034;-69
2022/06/21 03:30:00;;;;;;;10.00;4.70;;;;;;;13.72;71.60;101705.28;4983138;28;20061;-69
2022/06/21 03:32:33;;;;;;;11.13;5.15;;;;;;;13.66;72.32;101693.06;4986056;28;20042;-70
2022/06/21 03:34:59;;;;;;;10.55;5.20;;;;;;;13.65;72.67;101688.72;4987047;28;20068;-69
2022/06/21 03:37:25;;;;;;;11.25;4.65;;;;;;;13.66;72.25;101690.47;4988197;28;20073;-69
2022/06/21 03:42:40;;;;;;;9.48;4.75;;;;;;;13.75;72.25;101658.81;4986979;28;20060;-69
2022/06/21 03:45:17;;;;;;;6.88;4.53;;;;;;;13.73;72.33;101651.88;4989250;28;20037;-68
2022/06/21 03:48:06;;;;;;;8.25;4.72;;;;;;;13.77;72.01;101652.00;4978194;28;20057;-69
2022/06/21 03:50:38;;;;;;;12.85;5.22;;;;;;;13.70;72.49;101650.06;4977646;28;20045;-69
2022/06/21 03:53:19;;;;;;;10.88;5.10;;;;;;;13.67;73.03;101647.41;4982410;28;20108;-69
2022/06/21 03:56:08;;;;;;;10.75;5.43;;;;;;;13.69;72.70;101644.03;4984002;28;20029;-69
2022/06/21 03:58:55;;;;;;;8.73;5.28;;;;;;;13.71;72.60;101648.34;4988072;28;21149;-69
2022/06/21 04:01:31;;;;;;;12.55;5.88;;;;;;;13.65;72.97;101649.06;4989736;28;20092;-69
2022/06/21 04:04:12;;;;;;;12.93;5.85;;;;;;;13.60;73.00;101642.91;4985850;28;20050;-69
2022/06/21 04:06:49;;;;;;;11.40;5.57;;;;;;;13.56;73.04;101647.09;4984707;28;20042;-69
2022/06/21 04:09:33;;;;;;;13.13;5.97;;;;;;;13.48;73.43;101658.06;4983148;28;20034;-69
2022/06/21 04:12:10;;;;;;;11.95;5.70;;;;;;;13.52;73.30;101662.47;4985974;28;20507;-69
2022/06/21 04:14:56;;;;;;;12.38;6.18;;;;;;;13.54;73.04;101668.56;4987816;28;20041;-69
2022/06/21 04:17:31;;;;;;;10.52;5.70;;;;;;;13.51;73.30;101658.13;4989203;28;20041;-69
2022/06/21 04:20:10;;;;;;;11.50;5.93;;;;;;;13.53;73.23;101666.78;4988737;28;20080;-69
2022/06/21 04:22:42;;;;;;;11.35;6.40;;;;;;;13.53;73.46;101662.53;4993702;28;20487;-69
2022/06/21 04:25:25;;;;;;;9.55;5.93;;;;;;;13.53;73.70;101666.78;4997307;28;20033;-68
2022/06/21 04:28:00;;;;;;;11.02;5.82;;;;;;;13.54;73.40;101648.78;4978795;28;20749;-69
2022/06/21 04:31:04;;;;;;;10.73;5.97;;;;;;;13.64;72.95;101655.06;4984805;28;20030;-69
2022/06/21 04:33:36;;;;;;;13.07;6.45;;;;;;;13.60;73.90;101663.59;4985999;28;20033;-69
2022/06/21 04:36:13;;;;;;;13.05;6.43;;;;;;;13.62;73.49;101661.91;4987788;28;20107;-69
2022/06/21 04:38:54;;;;;;;19.83;6.68;;;;;;;13.60;73.99;101658.41;4983261;28;20026;-69
2022/06/21 04:41:40;;;;;;;11.70;7.28;;;;;;;13.68;73.54;101651.75;5000397;28;20069;-69
2022/06/21 04:44:13;;;;;;;12.95;7.25;;;;;;;13.66;73.87;101646.53;5003256;28;20069;-69
2022/06/21 04:46:46;;;;;;;16.98;7.75;;;;;;;13.68;73.85;101642.28;5002606;28;20037;-70
2022/06/21 04:49:23;;;;;;;12.65;7.80;;;;;;;13.79;73.66;101644.28;5002234;28;20033;-69
2022/06/21 04:51:51;;;;;;;14.23;7.78;;;;;;;13.78;73.55;101635.66;4998152;28;22552;-69
2022/06/21 04:54:20;;;;;;;12.52;7.68;;;;;;;13.76;74.26;101634.72;4998461;28;20100;-69
2022/06/21 04:57:00;;;;;;;12.20;7.38;;;;;;;13.86;73.19;101628.09;4999559;28;20029;-69
2022/06/21 04:59:29;;;;;;;13.68;8.10;;;;;;;13.87;74.12;101637.59;5002768;28;20061;-68
2022/06/21 05:01:55;;;;;;;;;;;;;;;14.07;72.38;101641.59;4992392;28;20095;-69
2022/06/21 05:04:27;;;;;;;11.98;6.97;;;;;;;14.00;73.74;101639.69;4994413;28;19917;-69
2022/06/21 05:06:54;;;;;;;12.05;6.75;;;;;;;14.07;73.51;101638.13;5001389;28;20030;-69
2022/06/21 05:09:23;;;;;;;14.63;6.78;;;;;;;14.11;72.95;101632.22;5008610;28;20064;-69
2022/06/21 05:11:57;;;;;;;14.20;6.68;;;;;;;14.14;73.16;101637.47;5001318;28;20030;-70
2022/06/21 05:14:26;;;;;;;14.20;6.32;;;;;;;14.15;72.85;101634.06;5001087;28;20030;-69
2022/06/21 05:16:52;;;;;;;11.85;6.30;;;;;;;14.18;72.52;101631.53;5001734;28;20032;-70
2022/06/21 05:19:22;;;;;;;10.82;5.03;;;;;;;14.25;72.34;101635.13;4985052;28;20719;-70
2022/06/21 05:21:52;;;;;;;10.95;5.18;;;;;;;14.25;71.96;101641.19;4997344;28;20037;-70
2022/06/21 05:24:19;;;;;;;11.98;5.35;;;;;;;14.34;72.48;101638.84;4997666;28;20095;-69
2022/06/21 05:26:51;;;;;;;13.10;4.90;;;;;;;14.40;71.35;101636.41;4999406;28;20033;-70
2022/06/21 05:29:23;;;;;;;12.25;4.43;;;;;;;14.47;70.92;101635.75;4997986;28;20042;-70
2022/06/21 05:31:54;;;;;;;9.98;4.55;;;;;;;14.54;70.90;101628.13;5002685;28;20088;-70
2022/06/21 05:34:28;;;;;;;11.23;4.60;;;;;;;14.63;70.63;101623.19;4992541;28;20045;-70
2022/06/21 05:37:01;;;;;;;13.07;4.53;;;;;;;14.70;70.78;101627.66;5001000;28;20032;-70
2022/06/21 05:39:36;;;;;;;14.48;4.82;;;;;;;14.79;70.73;101630.44;5005417;28;20487;-70
2022/06/21 05:42:06;;;;;;;11.80;4.55;;;;;;;14.79;69.53;101635.63;5002578;28;20032;-70
2022/06/21 05:44:36;;;;;;;12.13;4.95;;;;;;;14.86;69.66;101645.28;5003597;28;20647;-70
2022/06/21 05:47:12;;;;;;;10.80;4.90;;;;;;;14.94;69.59;101633.41;5004628;28;20513;-70
2022/06/21 05:49:41;;;;;;;13.90;4.63;;;;;;;14.98;69.46;101640.38;5001379;28;20085;-70
2022/06/21 05:52:30;;;;;;;12.40;4.00;;;;;;;15.10;69.19;101638.91;5001495;28;20025;-70
2022/06/21 05:55:04;;;;;;;7.68;4.10;;;;;;;15.15;69.08;101642.47;5007691;28;20034;-70
2022/06/21 05:58:21;;;;;;;10.35;4.20;;;;;;;15.26;68.45;101649.66;5003090;28;20135;-70
2022/06/21 06:01:11;;;;;;;10.70;3.75;;;;;;;15.26;67.74;101659.13;4968526;28;20091;-70
2022/06/21 06:03:47;;;;;;;8.30;3.60;;;;;;;15.35;67.32;101659.34;5001446;28;20025;-70
2022/06/21 06:06:16;;;;;;;8.50;3.15;;;;;;;15.29;66.93;101662.69;5009581;28;20046;-70
2022/06/21 06:08:43;;;;;;;;;;;;;;;15.47;67.15;101657.00;4981960;28;20087;-66
2022/06/21 06:14:47;;;;;;;9.43;3.50;;;;;;;15.56;67.66;101680.50;4975798;28;20132;-66
2022/06/21 06:17:36;;;;;;;7.30;3.10;;;;;;;15.59;66.87;101686.59;4975237;28;20069;-67
2022/06/21 06:20:19;;;;;;;5.57;2.80;;;;;;;15.67;66.80;101675.59;4989056;28;20040;-66
2022/06/21 06:22:53;;;;;;;8.57;3.15;;;;;;;15.79;66.85;101693.13;5009302;28;20470;-68
2022/06/21 06:25:43;;;;;;;10.75;3.85;;;;;;;15.86;66.66;101689.78;5006343;28;20040;-67
2022/06/21 06:28:18;;;;;;;10.77;3.28;;;;;;;15.88;65.99;101682.91;5007084;28;20025;-66
2022/06/21 06:31:11;;;;;;;9.52;3.63;;;;;;;16.02;66.11;101683.19;5009844;28;20040;-66
2022/06/21 06:33:39;;;;;;;7.75;3.47;;;;;;;16.09;65.68;101698.00;5007118;28;20026;-66
2022/06/21 06:36:10;;;;;;;9.27;3.35;;;;;;;16.19;65.76;101697.31;5003230;28;20526;-66
2022/06/21 06:38:36;;;;;;;9.75;3.05;;;;;;;16.38;65.02;101706.34;5000682;28;20052;-66
2022/06/21 06:41:17;;;;;;;10.00;3.30;;;;;;;16.39;64.73;101699.41;4997460;28;20034;-69
2022/06/21 06:43:53;;;;;;;8.32;2.88;;;;;;;16.42;64.25;101692.53;4992219;28;20025;-67
2022/06/21 06:46:31;;;;;;;9.38;3.03;;;;;;;16.50;64.27;101696.16;4994902;28;20037;-68
2022/06/21 06:49:02;;;;;;;6.50;2.75;;;;;;;16.61;63.99;101688.53;5003237;28;20068;-67
2022/06/21 06:51:40;;;;;;;6.80;2.67;;;;;;;16.73;63.88;101688.75;5006016;28;20053;-66
2022/06/21 06:54:14;;;;;;;6.90;2.60;;;;;;;16.81;62.87;101689.78;5003279;28;20155;-68
2022/06/21 06:57:01;;;;;;;7.88;2.50;;;;;;;16.96;62.89;101696.03;5004937;28;20170;-66
2022/06/21 06:59:26;;;;;;;5.65;2.80;;;;;;;17.00;62.96;101696.13;5003548;28;20044;-66
2022/06/21 07:02:01;;;;;;;8.07;2.80;;;;;;;17.05;61.83;101696.19;5007112;28;20431;-66
2022/06/21 07:04:34;;;;;;;9.30;3.30;;;;;;;17.09;61.59;101698.84;4984543;28;20172;-66
2022/06/21 07:07:06;;;;;;;5.95;2.75;;;;;;;17.17;61.68;101709.38;5003214;28;20022;-66
2022/06/21 07:09:47;;;;;;;8.30;2.90;;;;;;;17.27;62.34;101711.22;5004702;28;20034;-66
2022/06/21 07:12:24;;;;;;;6.38;2.50;;;;;;;17.33;60.62;101710.44;5001580;28;20033;-68
2022/06/21 07:14:50;;;;;;;8.90;2.47;;;;;;;17.46;60.66;101704.53;5002478;28;20026;-66
2022/06/21 07:17:34;;;;;;;3.88;2.22;;;;;;;17.46;60.76;101694.16;4993905;28;20052;-69
2022/06/21 07:20:00;;;;;;;4.53;2.17;;;;;;;17.51;59.17;101697.69;5002551;28;20535;-67
2022/06/21 07:22:34;;;;;;;6.13;2.03;;;;;;;17.54;58.45;101696.88;5000336;28;20043;-67
2022/06/21 07:25:26;;;;;;;8.30;1.98;;;;;;;17.61;59.77;101696.09;5005866;28;20220;-67
2022/06/21 07:27:55;;;;;;;10.05;2.25;;;;;;;17.63;58.30;101687.44;4987427;28;20068;-66
2022/06/21 07:30:28;;;;;;;4.75;1.92;;;;;;;17.69;57.05;101681.44;5009428;28;20393;-67
2022/06/21 07:33:01;;;;;;;4.38;1.88;;;;;;;17.74;57.48;101671.13;5009995;28;20022;-66
2022/06/21 07:35:38;;;;;;;5.13;2.10;;;;;;;17.83;57.78;101671.22;5012358;28;20033;-66
2022/06/21 07:38:21;;;;;;;8.23;2.25;;;;;;;17.91;57.49;101680.88;5015131;28;20025;-69
2022/06/21 07:40:54;;;;;;;5.35;1.98;;;;;;;17.98;57.88;101696.53;5010974;28;20737;-68
2022/06/21 07:43:26;;;;;;;6.78;2.22;;;;;;;18.01;57.45;101688.75;5010297;28;20104;-66
2022/06/21 07:45:56;;;;;;;7.90;2.00;;;;;;;18.09;57.42;101684.53;5012155;28;20049;-66
2022/06/21 07:48:29;;;;;;;4.68;1.90;;;;;;;18.15;57.58;101677.66;5012294;28;20025;-66
2022/06/21 07:51:06;;;;;;;6.90;2.30;;;;;;;18.12;55.69;101685.41;5004646;28;20026;-66
2022/06/21 07:53:41;;;;;;;5.47;2.10;;;;;;;18.22;55.91;101686.38;5010032;28;20387;-68
2022/06/21 07:56:16;;;;;;;5.22;2.20;;;;;;;18.22;54.96;101684.66;5004695;28;20034;-67
2022/06/21 07:58:50;;;;;;;7.18;1.80;;;;;;;18.26;54.21;101689.88;5002191;28;20025;-67
2022/06/21 08:07:53;;;;;;;6.18;2.20;;;;;;;18.62;53.21;101663.28;4930458;29;20055;-66
2022/06/21 08:10:21;;;;;;;7.68;2.00;;;;;;;18.67;53.06;101657.28;4987802;28;20037;-68
2022/06/21 08:12:48;;;;;;;5.38;2.15;;;;;;;18.63;53.96;101655.50;5008222;28;20043;-67
2022/06/21 08:15:14;;;;;;;9.63;2.38;;;;;;;18.63;54.14;101652.91;5007272;28;20571;-67
2022/06/21 08:17:42;;;;;;;6.38;2.20;;;;;;;18.63;53.00;101650.28;5005334;28;20108;-67
2022/06/21 08:20:13;;;;;;;6.90;2.20;;;;;;;18.62;52.67;101660.69;5003249;28;20079;-67
2022/06/21 08:22:50;;;;;;;6.85;2.55;;;;;;;18.72;53.08;101659.94;5002598;28;20029;-67
2022/06/21 08:25:26;;;;;;;6.63;2.30;;;;;;;18.83;53.12;101657.41;4994914;28;20038;-67
2022/06/21 08:28:02;;;;;;;4.75;2.20;;;;;;;18.86;52.68;101658.28;5008713;28;20076;-66
2022/06/21 08:30:38;;;;;;;7.57;2.20;;;;;;;19.03;52.52;101655.78;5008018;28;20052;-66
2022/06/21 08:33:08;;;;;;;8.55;2.50;;;;;;;19.10;51.69;101654.06;5013754;28;21259;-67
2022/06/21 08:35:55;;;;;;;5.30;2.42;;;;;;;19.13;52.50;101643.69;5009976;28;20546;-67
2022/06/21 08:38:30;;;;;;;8.40;2.20;;;;;;;19.16;52.20;101638.47;5008428;28;20037;-67
2022/06/21 08:44:27;;;;;;;7.22;2.15;;;;;;;19.18;49.69;101631.56;4950277;28;20048;-66
2022/06/21 08:47:20;;;;;;;6.45;2.13;;;;;;;19.22;51.37;101628.06;5010215;28;20041;-67
2022/06/21 08:50:10;;;;;;;5.38;2.00;;;;;;;19.32;52.33;101635.06;5012004;28;20033;-67
2022/06/21 08:53:09;;;;;;;10.55;2.70;;;;;;;19.35;52.44;101622.03;5018066;28;20022;-67
2022/06/21 08:55:43;;;;;;;7.57;2.45;;;;;;;19.42;51.89;101610.78;5013132;28;20020;-66
2022/06/21 08:58:08;;;;;;;8.23;2.35;;;;;;;19.55;52.02;101603.88;5014011;28;20046;-67
2022/06/21 09:00:59;;;;;;;10.23;2.28;;;;;;;19.63;52.28;101596.97;5010155;28;20025;-67
2022/06/21 09:03:49;;;;;;;4.90;2.08;;;;;;;19.59;52.58;101595.19;5006581;28;20045;-68
2022/06/21 09:06:23;;;;;;;6.35;2.40;;;;;;;19.57;48.73;101581.25;5009382;28;20064;-67
2022/06/21 09:08:48;;;;;;;9.52;2.53;;;;;;;19.64;49.77;101575.22;5009674;28;20026;-67
2022/06/21 09:11:16;;;;;;;7.80;2.80;;;;;;;19.53;50.21;101582.09;5008377;28;20037;-69
2022/06/21 09:14:19;;;;;;;8.45;2.90;;;;;;;19.56;51.38;101587.34;5009799;28;20025;-66
2022/06/21 09:17:15;;;;;;;7.97;2.92;;;;;;;19.51;50.97;101582.09;4984095;28;20080;-67
2022/06/21 09:20:01;;;;;;;12.43;2.97;;;;;;;19.57;52.05;101581.25;5004937;28;20049;-68
2022/06/21 09:22:59;;;;;;;9.70;2.90;;;;;;;19.64;51.01;101572.59;5008506;28;20033;-67
2022/06/21 09:25:43;;;;;;;7.80;2.72;;;;;;;19.72;50.20;101568.28;5011125;28;20318;-66
2022/06/21 09:28:33;;;;;;;5.00;2.55;;;;;;;19.77;50.09;101563.91;5006633;28;20029;-68
2022/06/21 09:31:04;;;;;;;7.25;2.45;;;;;;;19.87;51.51;101563.94;5006251;28;20033;-66
2022/06/21 09:33:44;;;;;;;7.97;2.60;;;;;;;20.02;50.47;101561.31;4994605;28;20025;-67
2022/06/21 09:36:18;;;;;;;4.50;2.53;;;;;;;20.07;48.54;101559.59;5005923;28;20029;-67
2022/06/21 09:39:15;;;;;;;5.80;2.70;;;;;;;20.15;49.05;101555.25;5007370;28;20028;-69
2022/06/21 09:41:55;;;;;;;5.45;2.03;;;;;;;20.28;47.97;101564.81;5003300;28;20029;-67
2022/06/21 09:44:46;;;;;;;6.53;3.10;;;;;;;20.39;48.04;101546.53;5001085;28;20037;-67
2022/06/21 09:47:25;;;;;;;9.38;3.10;;;;;;;20.42;47.61;101549.13;5004590;28;20128;-67
2022/06/21 09:50:04;;;;;;;9.23;2.75;;;;;;;20.52;47.78;101550.91;5002233;28;20512;-68
2022/06/21 09:52:45;;;;;;;4.15;2.50;;;;;;;20.66;46.86;101557.81;5001437;28;20156;-67
2022/06/21 09:55:42;;;;;;;9.75;2.78;;;;;;;20.73;46.60;101555.19;5008610;28;20025;-67
2022/06/21 09:58:31;;;;;;;5.60;2.03;;;;;;;20.85;44.81;101543.81;4999347;28;20045;-68
2022/06/21 10:00:56;;;;;;;4.78;2.38;;;;;;;20.93;45.57;101546.41;5001441;28;20100;-71
2022/06/21 10:03:57;;;;;;;7.93;2.55;;;;;;;20.93;45.70;101541.16;4994464;28;20520;-67
2022/06/21 10:06:35;;;;;;;7.22;2.60;;;;;;;21.05;45.91;101538.50;4889858;28;20104;-67
2022/06/21 10:09:53;;;;;;;7.68;2.80;;;;;;;21.06;46.66;101538.53;4998468;28;20045;-69
2022/06/21 10:12:33;;;;;;;7.45;2.75;;;;;;;20.85;44.56;101531.63;4940553;28;20091;-67
2022/06/21 10:14:59;;;;;;;4.88;2.13;;;;;;;20.68;43.72;101549.09;4937751;28;20043;-67
2022/06/21 10:17:45;;;;;;;5.63;2.25;;;;;;;20.73;44.38;101557.78;4981320;28;20392;-67
2022/06/21 10:20:44;;;;;;;4.55;2.40;;;;;;;20.85;45.07;101551.66;4971929;28;20046;-67
2022/06/21 10:23:22;;;;;;;7.05;2.20;;;;;;;20.82;45.16;101547.34;5011564;28;20041;-67
2022/06/21 10:26:31;;;;;;;7.17;3.07;;;;;;;20.82;45.31;101547.34;5004477;28;20056;-68
2022/06/21 10:29:25;;;;;;;5.28;2.53;;;;;;;20.74;45.67;101545.59;4986978;28;20468;-67
2022/06/21 10:32:12;;;;;;;6.28;2.72;;;;;;;20.78;46.83;101536.88;5004709;28;20092;-67
2022/06/21 10:34:52;;;;;;;6.28;2.78;;;;;;;20.77;47.42;101553.44;5008250;28;20033;-68
2022/06/21 10:37:44;;;;;;;5.47;2.67;;;;;;;20.77;47.50;101549.09;5004340;28;20560;-70
2022/06/21 10:40:55;;;;;;;6.65;2.50;;;;;;;20.88;47.26;101557.75;5001181;28;20145;-67
2022/06/21 10:43:33;;;;;;;4.55;2.42;;;;;;;20.79;44.96;101554.28;4970560;28;20538;-68
2022/06/21 10:46:17;;;;;;;8.63;2.47;;;;;;;20.76;45.64;101544.75;5004700;28;20049;-68
2022/06/21 10:48:42;;;;;;;7.07;2.47;;;;;;;20.70;45.08;101544.75;5007401;28;20033;-67
2022/06/21 10:51:26;;;;;;;4.20;2.28;;;;;;;20.59;44.32;101547.38;5006488;28;20095;-70
2022/06/21 10:54:26;;;;;;;4.40;2.10;;;;;;;20.74;45.71;101551.69;5007991;28;20034;-70
2022/06/21 10:57:14;;;;;;;5.13;2.25;;;;;;;20.77;46.08;101561.28;5005808;28;20032;-70
2022/06/21 11:02:54;;;;;;;4.97;2.00;;;;;;;20.80;46.72;101549.06;4999090;28;20079;-70
2022/06/21 11:05:29;;;;;;;6.53;2.10;;;;;;;20.77;45.16;101545.59;4991615;28;20163;-70
2022/06/21 11:08:00;;;;;;;5.78;2.25;;;;;;;20.77;43.98;101550.84;4996041;28;20092;-70
2022/06/21 11:10:31;;;;;;;5.40;1.80;;;;;;;20.75;44.97;101543.00;5003958;28;20035;-70
2022/06/21 11:13:04;;;;;;;3.97;1.75;;;;;;;20.81;44.12;101561.28;5003716;28;20031;-70
2022/06/21 11:15:53;;;;;;;5.15;1.63;;;;;;;20.88;44.76;101547.31;4991723;28;20033;-70
2022/06/21 11:18:40;;;;;;;6.32;2.17;;;;;;;20.87;44.64;101550.81;4988702;28;21961;-70
2022/06/21 11:21:35;;;;;;;5.07;1.90;;;;;;;20.99;45.35;101554.22;4984297;28;20452;-70
2022/06/21 11:24:17;;;;;;;5.93;2.00;;;;;;;20.91;45.90;101556.00;4992849;28;20042;-70
2022/06/21 11:27:09;;;;;;;4.65;1.70;;;;;;;20.87;44.79;101544.72;5000387;28;20033;-70
2022/06/21 11:29:47;;;;;;;5.80;1.77;;;;;;;20.89;46.43;101550.78;4995487;28;20077;-70
2022/06/21 11:32:20;;;;;;;6.75;1.88;;;;;;;20.92;45.58;101542.06;4998630;28;20484;-70
2022/06/21 11:34:54;;;;;;;5.18;2.03;;;;;;;20.82;46.24;101539.50;5000792;28;20057;-70
2022/06/21 11:37:59;;;;;;;5.72;1.80;;;;;;;20.92;46.61;101539.44;4997503;28;20038;-70
2022/06/21 11:40:39;;;;;;;5.47;1.75;;;;;;;20.81;44.92;101542.09;5000897;28;20057;-70
2022/06/21 11:43:28;;;;;;;4.78;1.98;;;;;;;20.80;44.71;101545.56;5003265;28;20064;-70
2022/06/21 11:46:16;;;;;;;6.80;1.77;;;;;;;20.83;45.07;101549.06;5001830;28;20116;-70
2022/06/21 11:48:53;;;;;;;4.83;1.67;;;;;;;20.80;45.07;101535.13;4997563;28;20057;-70
2022/06/21 11:51:34;;;;;;;4.97;1.50;;;;;;;20.73;45.00;101549.97;4998738;28;20018;-70
2022/06/21 11:54:10;;;;;;;3.38;1.38;;;;;;;20.68;44.38;101545.63;5000601;28;20042;-70
2022/06/21 11:56:47;;;;;;;6.53;1.70;;;;;;;20.70;45.06;101529.06;5001397;28;20112;-70
2022/06/21 11:59:18;;;;;;;4.50;1.17;;;;;;;20.70;45.20;101529.06;5001980;28;20041;-70
2022/06/21 12:01:55;;;;;;;4.68;1.40;;;;;;;20.72;45.28;101526.44;5002086;28;20165;-70
2022/06/21 12:04:39;;;;;;;6.05;1.48;;;;;;;20.71;44.84;101516.88;5002074;28;20462;-70
2022/06/21 12:07:05;;;;;;;4.18;1.20;;;;;;;20.64;45.29;101521.25;5001342;28;20034;-70
2022/06/21 12:09:55;;;;;;;3.80;1.40;;;;;;;20.74;45.05;101522.06;5006687;28;20029;-71
2022/06/21 12:12:58;;;;;;;4.53;1.23;;;;;;;20.60;44.19;101525.59;4966278;28;20045;-70
2022/06/21 12:15:46;;;;;;;5.70;1.60;;;;;;;20.55;44.78;101513.44;5006326;28;20092;-70
2022/06/21 12:18:20;;;;;;;5.05;1.15;;;;;;;20.52;44.75;101509.09;5002156;28;20127;-70
2022/06/21 12:20:51;;;;;;;2.88;1.02;;;;;;;20.65;46.10;101509.94;5000861;28;20029;-70
2022/06/21 12:23:18;;;;;;;3.97;1.13;;;;;;;20.62;43.64;101510.78;4999909;28;20332;-70
2022/06/21 12:25:45;;;;;;;5.50;0.95;;;;;;;20.65;43.62;101509.94;5003265;28;20030;-70
2022/06/21 12:28:14;;;;;;;4.05;1.10;;;;;;;20.69;42.96;101503.81;5002589;28;20174;-71